createdAt,value
2023-05-06T00:03:32.755Z,99895.94
2023-05-06T00:08:35.291Z,99895.88
2023-05-06T00:13:38.043Z,99900.81
2023-05-06T00:18:41.052Z,99898.66
2023-05-06T00:23:42.665Z,99882.66
2023-05-06T00:28:44.289Z,99883.38
2023-05-06T00:33:45.899Z,99862.88
2023-05-06T00:38:47.521Z,99861.88
2023-05-06T00:43:49.218Z,99863.69
2023-05-06T00:48:51.324Z,99836.00
2023-05-06T00:53:53.139Z,99840.41
2023-05-06T00:58:55.254Z,99854.28
2023-05-06T01:03:58.762Z,99840.13
2023-05-06T01:09:34.886Z,99845.00
2023-05-06T01:14:41.667Z,99837.75
2023-05-06T01:19:46.737Z,99834.00
2023-05-06T01:24:48.726Z,99841.69
2023-05-06T01:29:50.642Z,99851.91
2023-05-06T01:35:04.182Z,99853.41
2023-05-06T01:40:07.678Z,99857.69
2023-05-06T01:45:10.962Z,99859.44
2023-05-06T01:50:13.093Z,99856.50
2023-05-06T01:55:14.713Z,99850.16
2023-05-06T02:00:16.624Z,99841.50
2023-05-06T02:05:18.419Z,99835.38
2023-05-06T02:10:24.590Z,99828.31
2023-05-06T02:15:32.860Z,99831.16
2023-05-06T02:20:35.393Z,99827.63
2023-05-06T02:25:37.056Z,99817.22
2023-05-06T02:30:38.631Z,99813.94
2023-05-06T02:35:40.963Z,99808.06
2023-05-06T02:40:42.696Z,99803.31
2023-05-06T02:45:44.512Z,99794.13
2023-05-06T02:50:46.529Z,99794.75
2023-05-06T02:55:48.173Z,99797.16
2023-05-06T03:00:49.804Z,99802.09
2023-05-06T03:05:51.403Z,99796.38
2023-05-06T03:10:54.270Z,99799.75
2023-05-06T03:15:56.475Z,99798.03
2023-05-06T03:20:58.732Z,99800.03
2023-05-06T03:26:01.444Z,99789.56
2023-05-06T03:31:04.200Z,99790.13
2023-05-06T03:36:08.800Z,99792.41
2023-05-06T03:41:12.157Z,99798.84
2023-05-06T03:46:14.512Z,99789.91
2023-05-06T03:51:17.152Z,99782.81
2023-05-06T03:56:19.073Z,99802.00
2023-05-06T04:01:23.861Z,99790.38
2023-05-06T04:06:26.799Z,99795.91
2023-05-06T04:11:29.828Z,99796.97
2023-05-06T04:16:33.111Z,99805.19
2023-05-06T04:21:34.965Z,99808.38
2023-05-06T04:26:40.985Z,99820.16
2023-05-06T04:31:43.485Z,99821.22
2023-05-06T04:36:47.870Z,99831.16
2023-05-06T04:42:09.741Z,99829.00
2023-05-06T04:47:18.590Z,99826.69
2023-05-06T04:52:23.860Z,99828.47
2023-05-06T04:57:26.031Z,99827.19
2023-05-06T05:02:29.783Z,99830.47
2023-05-06T05:07:31.534Z,99833.41
2023-05-06T05:12:33.445Z,99843.72
2023-05-06T05:17:36.595Z,99837.84
2023-05-06T05:22:38.409Z,99845.47
2023-05-06T05:27:42.265Z,99848.56
2023-05-06T05:32:44.194Z,99845.91
2023-05-06T05:37:46.961Z,99846.31
2023-05-06T05:42:52.133Z,99857.66
2023-05-06T05:48:01.110Z,99852.66
2023-05-06T05:53:03.153Z,99849.75
2023-05-06T05:58:05.800Z,99856.75
2023-05-06T06:03:09.930Z,99855.00
2023-05-06T06:08:13.194Z,99856.47
2023-05-06T06:13:16.211Z,99865.72
2023-05-06T06:18:17.972Z,99867.19
2023-05-06T06:23:19.778Z,99874.47
2023-05-06T06:28:21.617Z,99872.03
2023-05-06T06:33:28.695Z,99879.50
2023-05-06T06:38:30.845Z,99888.41
2023-05-06T06:43:38.396Z,99882.50
2023-05-06T06:48:51.871Z,99885.47
2023-05-06T06:53:56.287Z,99877.19
2023-05-06T06:59:01.000Z,99885.66
2023-05-06T07:04:07.350Z,99889.47
2023-05-06T07:09:09.379Z,99904.50
2023-05-06T07:14:11.965Z,99906.22
2023-05-06T07:19:13.843Z,99915.69
2023-05-06T07:24:15.680Z,99914.66
2023-05-06T07:29:17.421Z,99924.63
2023-05-06T07:34:19.780Z,99921.47
2023-05-06T07:39:21.447Z,99916.16
2023-05-06T07:44:23.044Z,99919.56
2023-05-06T07:49:25.399Z,99934.69
2023-05-06T07:54:27.095Z,99941.00
2023-05-06T07:59:28.697Z,99940.69
2023-05-06T08:04:30.346Z,99948.78
2023-05-06T08:09:32.025Z,99947.13
2023-05-06T08:14:33.653Z,99960.72
2023-05-06T08:19:35.290Z,99965.66
2023-05-06T08:24:36.946Z,99972.13
2023-05-06T08:29:39.014Z,99976.69
2023-05-06T08:34:40.946Z,99982.69
2023-05-06T08:39:42.896Z,99992.28
2023-05-06T08:44:44.616Z,99992.13
2023-05-06T08:49:46.469Z,100001.69
2023-05-06T08:54:51.493Z,100005.34
2023-05-06T08:59:53.285Z,100002.03
2023-05-06T09:04:56.673Z,100002.19
2023-05-06T09:09:58.292Z,100002.06
2023-05-06T09:14:59.854Z,100007.72
2023-05-06T09:20:01.844Z,100017.50
2023-05-06T09:25:03.738Z,100021.47
2023-05-06T09:30:14.022Z,100020.06
2023-05-06T09:35:15.653Z,100018.78
2023-05-06T09:40:17.368Z,100028.09
2023-05-06T09:45:19.027Z,100029.78
2023-05-06T09:50:21.848Z,100031.44
2023-05-06T09:55:26.840Z,100037.81
2023-05-06T10:00:31.191Z,100033.75
2023-05-06T10:05:34.011Z,100044.56
2023-05-06T10:10:37.607Z,100038.38
2023-05-06T10:15:40.089Z,100046.75
2023-05-06T10:20:43.650Z,100036.28
2023-05-06T10:25:47.854Z,100041.97
2023-05-06T10:30:52.081Z,100036.13
2023-05-06T10:36:14.468Z,100038.38
2023-05-06T10:41:16.911Z,100036.06
2023-05-06T10:46:18.619Z,100039.59
2023-05-06T10:51:20.212Z,100043.72
2023-05-06T10:56:22.161Z,100046.78
2023-05-06T11:01:28.282Z,100050.53
2023-05-06T11:06:43.181Z,100048.06
2023-05-06T11:11:54.229Z,100050.72
2023-05-06T11:16:58.237Z,100057.56
2023-05-06T11:22:02.191Z,100067.59
2023-05-06T11:27:03.905Z,100050.50
2023-05-06T11:32:17.759Z,100058.91
2023-05-06T11:37:26.155Z,100072.66
2023-05-06T11:42:29.089Z,100060.75
2023-05-06T11:47:30.927Z,100062.84
2023-05-06T11:52:32.591Z,100075.22
2023-05-06T11:57:34.437Z,100078.56
2023-05-06T12:02:36.330Z,100081.78
2023-05-06T12:07:38.533Z,100078.03
2023-05-06T12:12:40.473Z,100083.50
2023-05-06T12:17:42.254Z,100090.63
2023-05-06T12:22:43.845Z,100092.84
2023-05-06T12:27:45.582Z,100100.84
2023-05-06T12:32:58.117Z,100096.91
2023-05-06T12:38:09.493Z,100107.53
2023-05-06T12:43:12.394Z,100109.75
2023-05-06T12:48:16.999Z,100098.25
2023-05-06T12:53:32.942Z,100101.88
2023-05-06T12:58:37.564Z,100101.72
2023-05-06T13:03:41.071Z,100101.56
2023-05-06T13:08:43.749Z,100100.69
2023-05-06T13:13:45.342Z,100093.41
2023-05-06T13:18:46.956Z,100084.44
2023-05-06T13:23:48.694Z,100099.53
2023-05-06T13:28:50.405Z,100102.84
2023-05-06T13:33:52.395Z,100103.16
2023-05-06T13:38:54.404Z,100118.00
2023-05-06T13:43:56.055Z,100118.00
2023-05-06T13:48:57.753Z,100116.72
2023-05-06T13:53:59.426Z,100116.41
2023-05-06T13:59:01.036Z,100116.59
2023-05-06T14:04:02.767Z,100124.88
2023-05-06T14:09:04.901Z,100119.81
2023-05-06T14:14:06.896Z,100122.19
2023-05-06T14:19:09.175Z,100116.63
2023-05-06T14:24:12.583Z,100127.00
2023-05-06T14:29:14.289Z,100128.31
2023-05-06T14:34:15.965Z,100131.59
2023-05-06T14:39:17.584Z,100136.31
2023-05-06T14:44:19.186Z,100139.25
2023-05-06T14:49:21.211Z,100133.56
2023-05-06T14:54:22.843Z,100138.47
2023-05-06T14:59:24.450Z,100148.25
2023-05-06T15:04:27.385Z,100146.59
2023-05-06T15:09:29.120Z,100140.53
2023-05-06T15:14:30.759Z,100147.41
2023-05-06T15:19:33.815Z,100157.91
2023-05-06T15:24:35.979Z,100149.63
2023-05-06T15:29:39.348Z,100151.00
2023-05-06T15:34:41.101Z,100162.69
2023-05-06T15:39:42.881Z,100152.19
2023-05-06T15:44:44.753Z,100160.00
2023-05-06T15:49:54.109Z,100153.03
2023-05-06T15:54:59.509Z,100149.19
2023-05-06T16:00:02.140Z,100156.38
2023-05-06T16:05:07.526Z,100168.06
2023-05-06T16:10:09.453Z,100162.94
2023-05-06T16:15:11.450Z,100166.22
2023-05-06T16:20:13.756Z,100162.63
2023-05-06T16:25:16.179Z,100158.59
2023-05-06T16:30:17.906Z,100162.22
2023-05-06T16:35:19.566Z,100163.91
2023-05-06T16:40:21.823Z,100162.34
2023-05-06T16:45:23.618Z,100165.41
2023-05-06T16:50:25.312Z,100156.69
2023-05-06T16:55:27.002Z,100156.63
2023-05-06T17:00:29.442Z,100172.19
2023-05-06T17:05:31.100Z,100173.16
2023-05-06T17:10:32.809Z,100168.66
2023-05-06T17:15:34.492Z,100174.75
2023-05-06T17:20:51.450Z,100170.31
2023-05-06T17:25:57.254Z,100179.66
2023-05-06T17:30:58.989Z,100175.50
2023-05-06T17:36:00.805Z,100178.13
2023-05-06T17:41:02.452Z,100183.69
2023-05-06T17:46:04.437Z,100186.06
2023-05-06T17:51:06.124Z,100184.28
2023-05-06T17:56:07.841Z,100195.31
2023-05-06T18:01:09.543Z,100195.19
2023-05-06T18:06:12.392Z,100197.22
2023-05-06T18:11:14.115Z,100208.38
2023-05-06T18:16:15.900Z,100214.56
2023-05-06T18:21:17.568Z,100214.00
2023-05-06T18:26:35.302Z,100219.44
2023-05-06T18:31:40.992Z,100226.53
2023-05-06T18:36:42.701Z,100234.31
2023-05-06T18:41:44.492Z,100243.56
2023-05-06T18:46:46.228Z,100250.88
2023-05-06T18:51:48.109Z,100258.88
2023-05-06T18:56:51.763Z,100258.84
2023-05-06T19:01:53.430Z,100264.28
2023-05-06T19:06:55.120Z,100265.28
2023-05-06T19:11:56.715Z,100265.59
2023-05-06T19:16:58.530Z,100271.06
2023-05-06T19:22:01.743Z,100266.88
2023-05-06T19:27:03.495Z,100276.28
2023-05-06T19:32:05.628Z,100273.63
2023-05-06T19:37:07.260Z,100270.88
2023-05-06T19:42:08.988Z,100280.25
2023-05-06T19:47:12.377Z,100286.75
2023-05-06T19:52:27.395Z,100285.53
2023-05-06T19:57:33.596Z,100282.28
2023-05-06T20:02:37.083Z,100280.13
2023-05-06T20:07:38.860Z,100280.13
2023-05-06T20:12:41.128Z,100276.19
2023-05-06T20:17:42.905Z,100273.75
2023-05-06T20:22:44.735Z,100272.69
2023-05-06T20:27:46.427Z,100279.56
2023-05-06T20:32:49.559Z,100281.78
2023-05-06T20:37:54.631Z,100280.25
2023-05-06T20:42:56.310Z,100289.59
2023-05-06T20:47:58.217Z,100284.91
2023-05-06T20:53:00.690Z,100286.75
2023-05-06T20:58:02.319Z,100293.19
2023-05-06T21:03:04.186Z,100296.63
2023-05-06T21:08:05.928Z,100302.09
2023-05-06T21:13:08.031Z,100309.03
2023-05-06T21:18:10.134Z,100308.06
2023-05-06T21:23:11.924Z,100306.47
2023-05-06T21:28:14.012Z,100306.34
2023-05-06T21:33:15.669Z,100298.59
2023-05-06T21:38:17.270Z,100316.22
2023-05-06T21:43:19.038Z,100310.22
2023-05-06T21:48:20.777Z,100320.22
2023-05-06T21:53:22.379Z,100319.66
2023-05-06T21:58:23.995Z,100321.69
2023-05-06T22:03:27.537Z,100313.00
2023-05-06T22:08:29.932Z,100317.78
2023-05-06T22:13:31.608Z,100311.75
2023-05-06T22:18:33.272Z,100325.44
2023-05-06T22:23:35.032Z,100315.94
2023-05-06T22:28:36.661Z,100312.66
2023-05-06T22:33:38.426Z,100314.06
2023-05-06T22:38:40.102Z,100317.50
2023-05-06T22:43:41.736Z,100327.47
2023-05-06T22:48:46.550Z,100331.84
2023-05-06T22:53:48.181Z,100329.78
2023-05-06T22:58:49.793Z,100330.66
2023-05-06T23:03:51.559Z,100326.66
2023-05-06T23:08:53.236Z,100330.59
2023-05-06T23:13:54.807Z,100329.09
2023-05-06T23:18:56.925Z,100325.84
2023-05-06T23:23:58.650Z,100328.94
2023-05-06T23:29:00.531Z,100320.41
2023-05-06T23:34:02.428Z,100336.13
2023-05-06T23:39:04.178Z,100332.81
2023-05-06T23:44:06.474Z,100335.50
2023-05-06T23:49:08.145Z,100334.06
2023-05-06T23:54:09.896Z,100334.41
2023-05-06T23:59:11.578Z,100331.13
